Flight Briefing for CPX811

Departure Arrival
Daniel K Inouye International Airport (PHNL)
Click to view FAA NOTAMS
Bucholz AAF Airport (PKWA)
Click to view FAA NOTAMS
Departure Time Arrival Time
N/A N/A
Aircraft Distance
B757-200SF 2127nm
Departure METAR Arrival METAR
PHNL 152053Z 03008G19KT 10SM FEW025 SCT040 BKN055 24/15 A3001 RMK AO2 RAB38E45 SLP161 P0000 60000 T02390150 50005 PKWA 152100Z AUTO 05017G23KT 10SM SCT021 BKN033 BKN041 28/24 A2983 RMK AO2 T02770236
Suggested Route
OPIHI2 CHOKO R584 MCFLY R584 MAZZA 1000N/17300E NDJ


View recent IFR Routes data
Notes
USTRANSCOM CONTRACT FLIGHT | LIMITED FUEL AVBL TO NON-DOD ACFT, TANKERING RCMD

Charts and Procedures

Charts for PHNL
No chart available
Charts for PKWA
No chart available

Ventusky Weather